< Typhoon 202213 2022 Season Typhoon 202215 >
Typhoon 202214 (NANMADOL)
General InformationDetailed Track InformationTrack Information on Google MapsForecast History on Google MapsAccess Analytics MapList of All Images || NewsDisaster Info.JMA Disaster Info. XMLWeblogTrackbackTyphoon FrontTwiphoonTyphoon Now!Typhoon ImaginationResourceGoogle EarthGE AnimationAtom FeedGeoJSON
Detalied Best Track Wind (Time Zone = UTC)
Year Month Day Hour Lat. Long. Wind (kt) Gust (kt) Direc. of Major Storm Axis Radius of Major Storm Axis (nm) Radius of Minor Storm Axis (nm) Direc. of Major Gale Axis Radius of Major Gale Axis (nm) Radius of Minor Gale Axis (nm) Image
2022 9 12 18 22.6 138.4 30 45 - - - - - - Image
2022 9 12 21 22.5 138.3 30 45 - - - - - - Image
2022 9 13 00 22.0 138.3 30 45 - - - - - - Image
2022 9 13 03 21.8 138.5 30 45 - - - - - - Image
2022 9 13 06 22.0 138.9 30 45 - - - - - - Image
2022 9 13 09 22.1 139.4 30 45 - - - - - - Image
2022 9 13 12 22.2 139.6 30 45 - - - - - - Image
2022 9 13 15 22.3 139.9 30 45 - - - - - - Image
2022 9 13 18 22.4 140.1 35 50 - - - SE 210 150 Image
2022 9 13 21 22.5 140.5 35 50 - - - SE 210 150 Image
2022 9 14 00 22.5 140.6 35 50 - - - SE 210 150 Image
2022 9 14 03 22.9 140.6 35 50 - - - SE 210 150 Image
2022 9 14 06 23.3 140.7 40 60 - - - SE 210 150 Image
2022 9 14 09 23.3 140.8 40 60 - - - SE 210 150 Image
2022 9 14 12 23.3 140.5 45 65 - - - SE 210 150 Image
2022 9 14 15 23.2 140.2 45 65 - - - SE 210 150 Image
2022 9 14 18 23.1 139.7 50 70 - - - SE 210 180 Image
2022 9 14 21 23.1 139.5 50 70 - - - SE 210 180 Image
2022 9 15 00 23.3 139.2 55 80 symmetric 50 50 SE 210 180 Image
2022 9 15 03 23.3 138.5 55 80 symmetric 50 50 symmetric 325 325 Image
2022 9 15 06 23.3 137.9 60 85 symmetric 60 60 symmetric 325 325 Image
2022 9 15 09 23.3 137.6 60 85 symmetric 60 60 symmetric 325 325 Image
2022 9 15 12 23.4 137.3 65 95 symmetric 70 70 symmetric 325 325 Image
2022 9 15 15 23.4 136.6 65 95 symmetric 70 70 symmetric 325 325 Image
2022 9 15 18 23.4 136.4 70 100 symmetric 80 80 E 350 300 Image
2022 9 15 21 23.5 136.3 75 105 symmetric 80 80 E 350 300 Image
2022 9 16 00 23.7 136.0 85 120 symmetric 80 80 E 350 300 Image
2022 9 16 03 23.9 135.7 85 120 symmetric 80 80 E 350 300 Image
2022 9 16 06 24.2 135.5 85 120 symmetric 100 100 E 350 300 Image
2022 9 16 09 24.5 135.1 85 120 symmetric 100 100 E 350 300 Image
2022 9 16 12 24.9 134.7 95 135 symmetric 100 100 E 350 300 Image
2022 9 16 15 25.2 134.2 95 135 symmetric 100 100 E 400 350 Image
2022 9 16 18 25.5 133.8 105 150 symmetric 100 100 E 400 350 Image
2022 9 16 21 25.7 133.4 105 150 E 100 80 E 400 350 Image
2022 9 17 00 26.0 133.1 105 150 E 100 80 E 400 350 Image
2022 9 17 03 26.4 132.8 105 150 E 100 80 E 400 350 Image
2022 9 17 06 26.7 132.5 105 150 E 100 80 E 400 350 Image
2022 9 17 09 27.1 132.2 105 150 E 100 80 E 400 350 Image
2022 9 17 12 27.5 132.0 105 150 E 100 80 E 400 350 Image
2022 9 17 15 27.9 131.7 105 150 E 100 80 E 400 350 Image
2022 9 17 18 28.5 131.4 100 140 E 100 80 E 400 350 Image
2022 9 17 21 29.0 131.3 95 135 NE 100 90 E 400 350 Image
2022 9 18 00 29.7 131.0 95 135 NE 100 90 E 400 350 Image
2022 9 18 03 30.3 130.7 90 130 NE 140 100 E 400 350 Image
2022 9 18 06 30.7 130.7 90 130 NE 140 100 E 400 350 Image
2022 9 18 09 31.3 130.6 90 130 NE 140 100 E 400 350 Image
2022 9 18 12 31.9 130.5 85 120 NE 140 100 E 400 350 Image
2022 9 18 15 32.7 130.5 75 105 NE 140 100 E 400 350 Image
2022 9 18 18 33.2 130.4 70 100 NE 140 100 E 400 350 Image
2022 9 18 21 33.6 130.6 65 95 NE 140 100 E 400 350 Image
2022 9 19 00 33.9 130.8 60 85 NE 140 100 E 400 350 Image
2022 9 19 03 34.4 131.6 60 85 N 140 100 E 400 350 Image
2022 9 19 06 35.3 132.4 60 85 N 180 100 E 400 350 Image
2022 9 19 09 35.5 133.2 55 80 N 150 120 E 400 350 Image
2022 9 19 12 36.1 134.6 55 80 N 150 120 E 400 350 Image
2022 9 19 15 37.0 135.8 55 80 NW 150 120 NW 400 350 Image
2022 9 19 18 37.7 138.6 50 70 - - - NW 400 350 Image
2022 9 19 21 38.6 140.7 50 70 - - - NW 400 350 Image
2022 9 20 00 39.0 143.0 40 0 - - - SW 600 400 Image
Japan Meteorological Agency Best Track Data | Correction Date : 2022-09-20
< Typhoon 202213 2022 Season Typhoon 202215 >

Help